This is the latest recevied weather packets stored in our database for station/object YD2CLX-11. If no packets are shown the sender has not sent any weather packets the latest 10 day(s).
| Time | Temp. | Humidity | Pressure | Rain* | Wind** | Luminosity | Snow |
|---|---|---|---|---|---|---|---|
| 1787792462 | 32.78° C | 54% | 1002.3 hPa | - | - | - | - |
| 1787791861 | 31.11° C | 58% | 1002.1 hPa | - | - | - | - |
| 1787791260 | 30.56° C | 61% | 1002.1 hPa | - | - | - | - |
| 1787790660 | 30.56° C | 62% | 1002 hPa | - | - | - | - |
| 1787790059 | 30.56° C | 61% | 1001.9 hPa | - | - | - | - |
| 1787789458 | 30° C | 63% | 1001.9 hPa | - | - | - | - |
| 1787788857 | 31.67° C | 61% | 1001.8 hPa | - | - | - | - |
| 1787788257 | 30.56° C | 63% | 1001.7 hPa | - | - | - | - |
| 1787787656 | 28.89° C | 67% | 1001.8 hPa | - | - | - | - |
| 1787787055 | 27.78° C | 70% | 1001.7 hPa | - | - | - | - |
| 1787786454 | 26.67° C | 71% | 1001.8 hPa | - | - | - | - |
| 1787785853 | 26.11° C | 71% | 1001.7 hPa | - | - | - | - |
| 1787785253 | 25.56° C | 73% | 1001.7 hPa | - | - | - | - |
| 1787784652 | 21.67° C | 83% | 1001.7 hPa | - | - | - | - |
| 1787784051 | 20° C | 85% | 1001.6 hPa | - | - | - | - |
| 1787783450 | 20° C | 85% | 1001.5 hPa | - | - | - | - |
| 1787782849 | 20° C | 85% | 1001.5 hPa | - | - | - | - |
| 1787782249 | 20° C | 85% | 1001.4 hPa | - | - | - | - |
| 1787781648 | 20° C | 85% | 1001.5 hPa | - | - | - | - |
| 1787781047 | 20° C | 85% | 1001.5 hPa | - | - | - | - |
| 1787780446 | 20° C | 85% | 1001.2 hPa | - | - | - | - |
| 1787779846 | 20° C | 85% | 1001 hPa | - | - | - | - |
| 1787779245 | 20° C | 85% | 1000.8 hPa | - | - | - | - |
| 1787778643 | 20° C | 84% | 1000.7 hPa | - | - | - | - |
| 1787778043 | 20° C | 84% | 1000.7 hPa | - | - | - | - |
* Rain since midnight (hover to see other rain measurements)
** Current wind speed in m/s (hover to see current wind gust speed)